createdAt,value
2023-02-25T00:02:02.989Z,2.80
2023-02-25T00:04:33.820Z,1.58
2023-02-25T00:07:06.623Z,1.77
2023-02-25T00:09:37.644Z,1.55
2023-02-25T00:12:08.345Z,1.73
2023-02-25T00:14:38.355Z,1.75
2023-02-25T00:17:08.824Z,1.27
2023-02-25T00:19:39.705Z,1.98
2023-02-25T00:22:12.218Z,1.35
2023-02-25T00:24:42.267Z,1.40
2023-02-25T00:27:12.139Z,2.00
2023-02-25T00:29:42.172Z,1.63
2023-02-25T00:32:12.787Z,1.63
2023-02-25T00:34:43.033Z,2.15
2023-02-25T00:37:16.460Z,2.17
2023-02-25T00:39:48.417Z,2.38
2023-02-25T00:42:20.374Z,1.38
2023-02-25T00:44:52.077Z,1.55
2023-02-25T00:47:23.299Z,1.67
2023-02-25T00:49:53.531Z,1.08
2023-02-25T00:52:26.154Z,1.48
2023-02-25T00:54:56.090Z,1.70
2023-02-25T00:57:26.222Z,1.13
2023-02-25T00:59:56.222Z,1.80
2023-02-25T01:02:26.530Z,1.70
2023-02-25T01:04:56.459Z,1.42
2023-02-25T01:07:29.392Z,1.77
2023-02-25T01:09:59.879Z,2.35
2023-02-25T01:12:29.782Z,1.20
2023-02-25T01:15:01.658Z,1.45
2023-02-25T01:17:31.872Z,1.00
2023-02-25T01:20:02.471Z,1.67
2023-02-25T01:22:35.598Z,1.25
2023-02-25T01:25:05.897Z,1.50
2023-02-25T01:27:36.254Z,1.23
2023-02-25T01:30:08.367Z,1.08
2023-02-25T01:32:38.434Z,1.00
2023-02-25T01:35:09.092Z,2.08
2023-02-25T01:37:43.869Z,1.70
2023-02-25T01:40:18.561Z,2.10
2023-02-25T01:42:48.814Z,1.90
2023-02-25T01:45:32.030Z,1.25
2023-02-25T01:48:14.575Z,1.25
2023-02-25T01:50:49.880Z,1.35
2023-02-25T01:53:26.593Z,2.22
2023-02-25T01:55:57.786Z,1.60
2023-02-25T01:58:32.506Z,1.20
2023-02-25T02:01:03.211Z,1.02
2023-02-25T02:03:37.130Z,1.65
2023-02-25T02:06:12.521Z,1.17
2023-02-25T02:08:47.462Z,1.67
2023-02-25T02:11:18.952Z,1.60
2023-02-25T02:13:52.695Z,1.50
2023-02-25T02:16:46.264Z,1.48
2023-02-25T02:19:27.563Z,0.98
2023-02-25T02:22:07.977Z,1.15
2023-02-25T02:25:22.851Z,1.02
2023-02-25T02:28:35.284Z,1.60
2023-02-25T02:31:27.358Z,1.75
2023-02-25T02:34:08.725Z,1.92
2023-02-25T02:36:47.766Z,1.63
2023-02-25T02:39:30.471Z,1.10
2023-02-25T02:42:13.627Z,1.92
2023-02-25T02:44:48.411Z,1.33
2023-02-25T02:47:27.829Z,1.30
2023-02-25T02:50:03.880Z,0.85
2023-02-25T02:52:38.543Z,1.63
2023-02-25T02:55:14.046Z,1.83
2023-02-25T02:57:45.665Z,1.85
2023-02-25T03:00:19.230Z,1.10
2023-02-25T03:03:00.590Z,1.10
2023-02-25T03:05:32.851Z,1.75
2023-02-25T03:08:09.567Z,1.20
2023-02-25T03:10:43.104Z,0.77
2023-02-25T03:13:13.888Z,0.73
2023-02-25T03:15:44.605Z,1.20
2023-02-25T03:18:24.717Z,1.25
2023-02-25T03:21:00.652Z,1.38
2023-02-25T03:23:34.877Z,1.48
2023-02-25T03:26:15.009Z,0.98
2023-02-25T03:28:48.177Z,0.90
2023-02-25T03:31:23.101Z,1.73
2023-02-25T03:33:59.116Z,0.90
2023-02-25T03:36:33.284Z,1.10
2023-02-25T03:39:09.826Z,1.00
2023-02-25T03:41:48.391Z,1.13
2023-02-25T03:44:22.456Z,1.35
2023-02-25T03:49:31.754Z,1.08
2023-02-25T03:52:04.809Z,0.70
2023-02-25T03:54:35.288Z,1.10
2023-02-25T03:57:05.210Z,1.00
2023-02-25T03:59:35.033Z,1.00
2023-02-25T04:02:05.749Z,1.48
2023-02-25T04:04:38.387Z,1.33
2023-02-25T04:07:08.950Z,0.85
2023-02-25T04:09:39.923Z,2.58
2023-02-25T04:12:10.415Z,0.90
2023-02-25T04:14:40.303Z,0.93
2023-02-25T04:17:11.759Z,1.33
2023-02-25T04:19:44.370Z,1.00
2023-02-25T04:22:14.368Z,1.45
2023-02-25T04:24:44.290Z,1.08
2023-02-25T04:27:15.822Z,1.15
2023-02-25T04:29:45.993Z,1.52
2023-02-25T04:32:16.079Z,0.75
2023-02-25T04:34:48.586Z,1.70
2023-02-25T04:37:19.014Z,1.48
2023-02-25T04:39:48.919Z,1.00
2023-02-25T04:42:19.382Z,1.23
2023-02-25T04:44:49.311Z,1.40
2023-02-25T04:47:19.546Z,1.17
2023-02-25T04:49:52.263Z,1.30
2023-02-25T04:52:22.712Z,1.17
2023-02-25T04:54:53.041Z,0.93
2023-02-25T04:57:23.338Z,1.35
2023-02-25T04:59:53.359Z,0.90
2023-02-25T05:02:23.678Z,1.27
2023-02-25T05:04:56.547Z,1.10
2023-02-25T05:07:26.782Z,0.93
2023-02-25T05:09:59.693Z,0.70
2023-02-25T05:12:29.997Z,0.70
2023-02-25T05:15:00.028Z,1.13
2023-02-25T05:17:29.985Z,0.57
2023-02-25T05:20:05.276Z,0.73
2023-02-25T05:22:35.196Z,0.70
2023-02-25T05:25:05.048Z,0.88
2023-02-25T05:27:35.333Z,0.82
2023-02-25T05:30:05.793Z,1.25
2023-02-25T05:32:36.002Z,1.17
2023-02-25T05:35:10.708Z,0.80
2023-02-25T05:37:41.450Z,1.20
2023-02-25T05:40:14.284Z,1.00
2023-02-25T05:42:44.310Z,1.23
2023-02-25T05:45:14.862Z,1.00
2023-02-25T05:47:44.997Z,1.17
2023-02-25T05:50:18.046Z,0.75
2023-02-25T05:52:47.931Z,0.55
2023-02-25T05:55:18.946Z,0.57
2023-02-25T05:57:48.924Z,1.10
2023-02-25T06:00:21.677Z,0.60
2023-02-25T06:02:51.564Z,0.80
2023-02-25T06:05:24.204Z,0.68
2023-02-25T06:07:54.193Z,0.55
2023-02-25T06:10:25.871Z,1.02
2023-02-25T06:12:56.449Z,0.60
2023-02-25T06:15:26.428Z,0.63
2023-02-25T06:17:56.294Z,0.73
2023-02-25T06:20:28.806Z,0.88
2023-02-25T06:23:01.320Z,0.77
2023-02-25T06:25:31.665Z,0.50
2023-02-25T06:28:02.993Z,0.80
2023-02-25T06:30:33.891Z,0.55
2023-02-25T06:33:04.014Z,0.40
2023-02-25T06:35:37.184Z,0.90
2023-02-25T06:38:07.086Z,0.88
2023-02-25T06:40:37.067Z,0.70
2023-02-25T06:43:07.237Z,0.47
2023-02-25T06:45:37.103Z,0.52
2023-02-25T06:48:07.627Z,0.60
2023-02-25T06:53:44.986Z,0.68
2023-02-25T06:56:20.403Z,0.70
2023-02-25T06:58:52.675Z,0.60
2023-02-25T07:01:25.250Z,0.73
2023-02-25T07:03:56.471Z,0.60
2023-02-25T07:06:26.537Z,0.50
2023-02-25T07:08:59.252Z,0.50
2023-02-25T07:11:33.793Z,0.60
2023-02-25T07:14:04.300Z,0.55
2023-02-25T07:16:34.915Z,0.50
2023-02-25T07:19:05.101Z,0.63
2023-02-25T07:21:35.089Z,0.60
2023-02-25T07:24:08.486Z,0.65
2023-02-25T07:26:38.850Z,0.75
2023-02-25T07:29:09.764Z,0.65
2023-02-25T07:31:40.010Z,1.00
2023-02-25T07:34:11.553Z,0.70
2023-02-25T07:36:41.894Z,0.55
2023-02-25T07:39:15.391Z,1.15
2023-02-25T07:41:45.541Z,0.70
2023-02-25T07:44:15.482Z,0.52
2023-02-25T07:46:45.458Z,1.05
2023-02-25T07:49:15.520Z,0.70
2023-02-25T07:51:45.784Z,0.60
2023-02-25T07:54:21.330Z,0.40
2023-02-25T07:56:53.472Z,0.73
2023-02-25T07:59:23.379Z,0.60
2023-02-25T08:01:53.320Z,0.77
2023-02-25T08:04:24.672Z,0.70
2023-02-25T08:06:55.486Z,0.60
2023-02-25T08:09:28.004Z,0.70
2023-02-25T08:11:58.179Z,0.82
2023-02-25T08:14:28.150Z,0.60
2023-02-25T08:17:01.916Z,0.50
2023-02-25T08:19:32.036Z,0.40
2023-02-25T08:22:11.990Z,0.90
2023-02-25T08:24:44.851Z,0.70
2023-02-25T08:27:14.781Z,0.50
2023-02-25T08:29:44.845Z,0.40
2023-02-25T08:32:14.980Z,0.75
2023-02-25T08:34:47.189Z,0.40
2023-02-25T08:37:18.393Z,0.93
2023-02-25T08:39:50.990Z,0.60
2023-02-25T08:42:21.067Z,0.70
2023-02-25T08:44:51.109Z,1.35
2023-02-25T08:47:24.061Z,0.88
2023-02-25T08:49:54.347Z,0.80
2023-02-25T08:52:24.254Z,0.70
2023-02-25T08:54:56.811Z,0.70
2023-02-25T08:57:26.864Z,0.80
2023-02-25T08:59:57.290Z,0.80
2023-02-25T09:02:27.203Z,0.73
2023-02-25T09:04:57.359Z,0.60
2023-02-25T09:07:27.340Z,0.70
2023-02-25T09:09:59.957Z,0.57
2023-02-25T09:12:29.964Z,0.40
2023-02-25T09:14:59.888Z,0.60
2023-02-25T09:17:29.945Z,0.60
2023-02-25T09:20:01.435Z,0.35
2023-02-25T09:22:33.206Z,0.93
2023-02-25T09:25:06.358Z,0.50
2023-02-25T09:27:36.765Z,0.68
2023-02-25T09:30:07.428Z,0.40
2023-02-25T09:32:37.493Z,0.47
2023-02-25T09:35:09.590Z,0.70
2023-02-25T09:37:39.550Z,0.60
2023-02-25T09:40:21.500Z,0.70
2023-02-25T09:43:03.294Z,0.68
2023-02-25T09:45:36.434Z,0.95
2023-02-25T09:48:16.172Z,0.65
2023-02-25T09:50:52.136Z,0.60
2023-02-25T09:53:26.098Z,0.70
2023-02-25T09:55:59.229Z,0.52
2023-02-25T09:58:35.918Z,0.43
2023-02-25T10:01:09.326Z,0.60
2023-02-25T10:03:51.110Z,0.88
2023-02-25T10:06:27.808Z,0.50
2023-02-25T10:09:06.542Z,0.50
2023-02-25T10:11:49.538Z,0.38
2023-02-25T10:14:34.617Z,0.50
2023-02-25T10:17:11.807Z,0.60
2023-02-25T10:19:59.879Z,0.80
2023-02-25T10:22:42.513Z,0.60
2023-02-25T10:25:17.536Z,0.57
2023-02-25T10:27:56.450Z,0.60
2023-02-25T10:30:33.233Z,0.50
2023-02-25T10:33:06.293Z,0.77
2023-02-25T10:35:43.006Z,1.05
2023-02-25T10:38:14.329Z,0.55
2023-02-25T10:40:44.840Z,0.90
2023-02-25T10:43:23.718Z,0.80
2023-02-25T10:46:01.279Z,0.68
2023-02-25T10:48:32.862Z,0.55
2023-02-25T10:51:12.320Z,0.65
2023-02-25T10:53:43.510Z,0.68
2023-02-25T10:56:13.566Z,0.60
2023-02-25T10:58:48.384Z,0.70
2023-02-25T11:01:23.124Z,0.63
2023-02-25T11:04:00.288Z,0.65
2023-02-25T11:06:32.560Z,0.60
2023-02-25T11:09:05.106Z,0.45
2023-02-25T11:11:38.904Z,0.50
2023-02-25T11:14:20.508Z,0.70
2023-02-25T11:16:51.201Z,0.70
2023-02-25T11:19:28.010Z,0.95
2023-02-25T11:22:00.744Z,0.80
2023-02-25T11:24:36.173Z,1.00
2023-02-25T11:27:09.152Z,0.40
2023-02-25T11:29:46.343Z,0.63
2023-02-25T11:32:20.108Z,0.70
2023-02-25T11:34:54.364Z,0.70
2023-02-25T11:37:37.367Z,0.90
2023-02-25T11:40:25.951Z,0.90
2023-02-25T11:43:05.294Z,1.17
2023-02-25T11:45:43.185Z,0.55
2023-02-25T11:48:22.167Z,0.70
2023-02-25T11:51:00.827Z,0.80
2023-02-25T11:53:53.642Z,1.00
2023-02-25T11:56:28.674Z,0.95
2023-02-25T11:59:16.393Z,1.02
2023-02-25T12:02:21.553Z,1.20
2023-02-25T12:05:26.610Z,0.80
2023-02-25T12:11:12.871Z,0.80
2023-02-25T12:14:08.847Z,1.17
2023-02-25T12:17:04.949Z,0.90
2023-02-25T12:19:59.430Z,0.52
2023-02-25T12:23:01.337Z,0.98
2023-02-25T12:25:45.047Z,0.57
2023-02-25T12:28:51.112Z,0.60
2023-02-25T12:31:56.731Z,0.77
2023-02-25T12:34:42.294Z,0.40
2023-02-25T12:37:39.246Z,0.60
2023-02-25T12:40:28.421Z,0.60
2023-02-25T12:43:09.628Z,0.52
2023-02-25T12:46:15.275Z,0.90
2023-02-25T12:49:16.596Z,0.70
2023-02-25T12:52:10.317Z,0.98
2023-02-25T12:55:16.334Z,0.82
2023-02-25T12:57:53.086Z,0.50
2023-02-25T13:00:58.649Z,0.70
2023-02-25T13:03:42.604Z,0.70
2023-02-25T13:06:31.696Z,0.60
2023-02-25T13:09:18.814Z,0.40
2023-02-25T13:12:15.169Z,0.75
2023-02-25T13:14:59.669Z,0.80
2023-02-25T13:17:52.353Z,0.68
2023-02-25T13:20:51.429Z,0.80
2023-02-25T13:23:40.288Z,0.85
2023-02-25T13:26:31.412Z,0.60
2023-02-25T13:29:22.036Z,0.50
2023-02-25T13:32:00.702Z,0.88
2023-02-25T13:34:42.451Z,0.63
2023-02-25T13:37:41.200Z,0.65
2023-02-25T13:40:28.400Z,0.43
2023-02-25T13:43:15.299Z,0.60
2023-02-25T13:45:59.952Z,0.65
2023-02-25T13:51:34.683Z,0.60
2023-02-25T13:54:30.788Z,0.45
2023-02-25T13:57:13.828Z,0.60
2023-02-25T14:00:05.729Z,0.40
2023-02-25T14:02:59.858Z,0.55
2023-02-25T14:06:02.326Z,0.32
2023-02-25T14:08:51.027Z,0.50
2023-02-25T14:11:37.760Z,0.40
2023-02-25T14:14:30.945Z,0.60
2023-02-25T14:17:26.688Z,0.70
2023-02-25T14:20:14.885Z,0.40
2023-02-25T14:22:49.053Z,0.55
2023-02-25T14:25:31.428Z,0.88
2023-02-25T14:28:09.558Z,0.70
2023-02-25T14:30:52.680Z,0.70
2023-02-25T14:33:42.503Z,0.60
2023-02-25T14:36:31.680Z,0.45
2023-02-25T14:39:25.031Z,1.23
2023-02-25T14:42:07.369Z,1.05
2023-02-25T14:44:42.441Z,1.02
2023-02-25T14:47:16.159Z,0.65
2023-02-25T14:49:57.977Z,0.88
2023-02-25T14:52:54.279Z,0.70
2023-02-25T14:55:50.120Z,0.85
2023-02-25T14:58:49.047Z,0.70
2023-02-25T15:01:50.238Z,0.80
2023-02-25T15:04:46.555Z,0.90
2023-02-25T15:07:35.291Z,0.60
2023-02-25T15:10:36.431Z,1.02
2023-02-25T15:13:32.521Z,1.38
2023-02-25T15:16:32.138Z,1.20
2023-02-25T15:19:38.134Z,1.00
2023-02-25T15:22:24.134Z,1.48
2023-02-25T15:24:55.573Z,0.73
2023-02-25T15:27:50.940Z,0.65
2023-02-25T15:30:24.773Z,0.60
2023-02-25T15:33:07.757Z,0.60
2023-02-25T15:36:00.163Z,0.57
2023-02-25T15:38:51.150Z,0.90
2023-02-25T15:41:44.859Z,0.85
2023-02-25T15:44:37.592Z,1.05
2023-02-25T15:47:27.704Z,0.80
2023-02-25T15:50:00.495Z,0.80
2023-02-25T15:52:58.818Z,0.93
2023-02-25T15:55:40.889Z,0.75
2023-02-25T15:58:44.841Z,0.55
2023-02-25T16:01:43.285Z,0.82
2023-02-25T16:04:45.651Z,0.95
2023-02-25T16:07:18.857Z,1.10
2023-02-25T16:09:53.541Z,1.35
2023-02-25T16:12:27.426Z,1.25
2023-02-25T16:15:00.673Z,1.20
2023-02-25T16:17:34.409Z,0.65
2023-02-25T16:20:19.743Z,1.08
2023-02-25T16:22:51.975Z,0.75
2023-02-25T16:25:29.745Z,1.23
2023-02-25T16:28:09.917Z,0.75
2023-02-25T16:30:45.057Z,1.00
2023-02-25T16:33:23.683Z,0.90
2023-02-25T16:36:07.427Z,1.00
2023-02-25T16:38:47.591Z,1.02
2023-02-25T16:41:19.176Z,0.88
2023-02-25T16:43:52.944Z,1.42
2023-02-25T16:46:26.246Z,0.85
2023-02-25T16:48:59.024Z,1.00
2023-02-25T16:51:34.576Z,0.73
2023-02-25T16:54:09.761Z,0.70
2023-02-25T16:56:40.180Z,0.90
2023-02-25T16:59:21.647Z,1.33
2023-02-25T17:02:01.185Z,0.93
2023-02-25T17:04:33.874Z,1.05
2023-02-25T17:07:18.301Z,1.00
2023-02-25T17:09:50.945Z,0.70
2023-02-25T17:12:24.712Z,0.60
2023-02-25T17:14:58.667Z,0.70
2023-02-25T17:17:33.236Z,0.70
2023-02-25T17:20:06.024Z,0.77
2023-02-25T17:22:36.963Z,0.95
2023-02-25T17:25:08.898Z,0.60
2023-02-25T17:27:39.005Z,0.60
2023-02-25T17:30:36.713Z,0.60
2023-02-25T17:33:07.682Z,0.70
2023-02-25T17:35:39.236Z,0.70
2023-02-25T17:38:09.937Z,0.95
2023-02-25T17:40:40.174Z,0.50
2023-02-25T17:43:23.570Z,0.77
2023-02-25T17:46:01.326Z,1.23
2023-02-25T17:48:34.492Z,1.10
2023-02-25T17:51:10.315Z,0.82
2023-02-25T17:53:47.019Z,1.25
2023-02-25T17:56:25.679Z,0.90
2023-02-25T17:59:00.832Z,1.10
2023-02-25T18:01:47.378Z,1.38
2023-02-25T18:04:26.801Z,1.38
2023-02-25T18:06:58.311Z,1.60
2023-02-25T18:09:34.188Z,1.20
2023-02-25T18:12:06.180Z,1.00
2023-02-25T18:14:39.813Z,1.05
2023-02-25T18:17:25.651Z,1.02
2023-02-25T18:19:58.171Z,1.02
2023-02-25T18:22:37.791Z,0.80
2023-02-25T18:25:30.439Z,1.40
2023-02-25T18:28:00.752Z,0.65
2023-02-25T18:30:33.239Z,1.23
2023-02-25T18:33:05.922Z,1.33
2023-02-25T18:35:42.911Z,0.88
2023-02-25T18:38:16.478Z,1.10
2023-02-25T18:40:46.655Z,1.17
2023-02-25T18:43:19.577Z,1.45
2023-02-25T18:45:50.190Z,1.10
2023-02-25T18:48:22.934Z,1.00
2023-02-25T18:50:53.130Z,0.98
2023-02-25T18:53:25.602Z,1.17
2023-02-25T18:55:57.382Z,0.70
2023-02-25T18:58:27.824Z,1.70
2023-02-25T19:01:00.494Z,2.00
2023-02-25T19:03:36.537Z,1.65
2023-02-25T19:06:07.053Z,1.45
2023-02-25T19:08:37.375Z,1.08
2023-02-25T19:11:08.131Z,1.73
2023-02-25T19:13:41.510Z,1.30
2023-02-25T19:16:12.126Z,1.77
2023-02-25T19:18:44.895Z,1.40
2023-02-25T19:21:17.976Z,1.05
2023-02-25T19:23:51.758Z,1.33
2023-02-25T19:26:22.972Z,1.48
2023-02-25T19:28:53.493Z,1.10
2023-02-25T19:31:23.667Z,1.05
2023-02-25T19:33:56.743Z,1.55
2023-02-25T19:36:29.914Z,1.50
2023-02-25T19:39:05.419Z,1.08
2023-02-25T19:41:36.113Z,2.10
2023-02-25T19:44:06.429Z,1.20
2023-02-25T19:46:37.038Z,1.30
2023-02-25T19:49:13.384Z,1.20
2023-02-25T19:51:43.896Z,1.48
2023-02-25T19:54:14.659Z,1.58
2023-02-25T19:56:45.068Z,1.38
2023-02-25T19:59:15.482Z,2.20
2023-02-25T20:01:49.675Z,1.15
2023-02-25T20:04:22.864Z,2.25
2023-02-25T20:06:53.446Z,1.13
2023-02-25T20:09:23.882Z,1.52
2023-02-25T20:11:53.911Z,1.48
2023-02-25T20:14:24.199Z,2.47
2023-02-25T20:16:54.674Z,1.20
2023-02-25T20:19:30.415Z,1.50
2023-02-25T20:22:00.652Z,1.67
2023-02-25T20:24:31.172Z,2.20
2023-02-25T20:27:01.478Z,1.33
2023-02-25T20:29:32.121Z,2.10
2023-02-25T20:32:03.189Z,1.35
2023-02-25T20:34:36.361Z,2.38
2023-02-25T20:37:13.439Z,1.52
2023-02-25T20:39:52.256Z,1.95
2023-02-25T20:42:25.366Z,1.80
2023-02-25T20:44:56.206Z,1.65
2023-02-25T20:47:28.751Z,2.65
2023-02-25T20:50:01.957Z,1.92
2023-02-25T20:52:32.381Z,2.03
2023-02-25T20:55:02.708Z,1.38
2023-02-25T20:57:33.034Z,1.90
2023-02-25T21:00:04.461Z,1.30
2023-02-25T21:02:34.608Z,1.20
2023-02-25T21:05:08.099Z,2.05
2023-02-25T21:07:38.312Z,1.33
2023-02-25T21:10:10.441Z,1.70
2023-02-25T21:12:40.726Z,1.42
2023-02-25T21:15:12.357Z,1.60
2023-02-25T21:17:42.489Z,1.48
2023-02-25T21:20:15.645Z,1.45
2023-02-25T21:22:45.710Z,1.50
2023-02-25T21:25:16.116Z,1.75
2023-02-25T21:27:46.090Z,1.30
2023-02-25T21:30:16.930Z,1.83
2023-02-25T21:32:47.094Z,1.40
2023-02-25T21:35:21.266Z,1.20
2023-02-25T21:37:51.198Z,1.58
2023-02-25T21:40:21.871Z,1.35
2023-02-25T21:42:51.944Z,1.38
2023-02-25T21:45:21.931Z,1.25
2023-02-25T21:47:51.832Z,1.13
2023-02-25T21:50:24.333Z,1.13
2023-02-25T21:52:54.403Z,1.40
2023-02-25T21:55:24.456Z,1.48
2023-02-25T21:57:55.116Z,0.90
2023-02-25T22:00:25.963Z,0.93
2023-02-25T22:02:56.221Z,1.42
2023-02-25T22:05:29.032Z,1.55
2023-02-25T22:07:59.149Z,0.90
2023-02-25T22:10:29.145Z,0.82
2023-02-25T22:12:59.398Z,1.00
2023-02-25T22:15:29.622Z,1.23
2023-02-25T22:17:59.549Z,1.42
2023-02-25T22:20:32.071Z,1.13
2023-02-25T22:23:02.070Z,0.90
2023-02-25T22:25:32.163Z,1.15
2023-02-25T22:28:05.203Z,1.20
2023-02-25T22:30:35.855Z,1.00
2023-02-25T22:33:06.222Z,0.90
2023-02-25T22:35:39.223Z,1.38
2023-02-25T22:38:11.368Z,1.52
2023-02-25T22:40:42.368Z,1.42
2023-02-25T22:43:12.418Z,1.58
2023-02-25T22:45:42.783Z,1.70
2023-02-25T22:48:13.151Z,1.73
2023-02-25T22:50:49.594Z,1.67
2023-02-25T22:53:20.346Z,1.77
2023-02-25T22:55:50.647Z,2.00
2023-02-25T22:58:20.729Z,1.48
2023-02-25T23:00:50.887Z,1.67
2023-02-25T23:03:20.932Z,1.05
2023-02-25T23:05:55.041Z,1.35
2023-02-25T23:08:25.495Z,1.45
2023-02-25T23:10:56.024Z,1.27
2023-02-25T23:13:26.154Z,1.63
2023-02-25T23:15:56.537Z,1.00
2023-02-25T23:18:26.485Z,1.38
2023-02-25T23:20:59.173Z,0.90
2023-02-25T23:23:38.370Z,1.17
2023-02-25T23:26:10.248Z,2.20
2023-02-25T23:28:40.551Z,1.30
2023-02-25T23:31:11.146Z,1.23
2023-02-25T23:33:41.749Z,1.63
2023-02-25T23:36:15.129Z,1.10
2023-02-25T23:38:45.105Z,1.00
2023-02-25T23:41:15.976Z,1.00
2023-02-25T23:43:46.329Z,1.23
2023-02-25T23:46:16.669Z,0.95
2023-02-25T23:48:46.727Z,1.10
2023-02-25T23:51:19.506Z,1.25
2023-02-25T23:53:49.702Z,1.15
2023-02-25T23:56:19.742Z,1.10
2023-02-25T23:58:54.544Z,1.02
